createdAt,value
2022-12-06T00:01:11.969Z,100679.59
2022-12-06T00:03:40.103Z,100675.09
2022-12-06T00:06:09.944Z,100671.47
2022-12-06T00:08:38.159Z,100637.72
2022-12-06T00:11:22.685Z,100670.69
2022-12-06T00:13:56.946Z,100666.28
2022-12-06T00:16:25.046Z,100647.09
2022-12-06T00:18:51.701Z,100661.69
2022-12-06T00:21:23.095Z,100661.81
2022-12-06T00:23:55.124Z,100663.50
2022-12-06T00:26:22.159Z,100635.75
2022-12-06T00:28:51.823Z,100659.97
2022-12-06T00:31:20.415Z,100635.88
2022-12-06T00:33:47.642Z,100647.19
2022-12-06T00:36:17.547Z,100654.22
2022-12-06T00:38:44.300Z,100660.38
2022-12-06T00:41:17.428Z,100655.22
2022-12-06T00:43:44.492Z,100628.56
2022-12-06T00:46:15.639Z,100660.72
2022-12-06T00:48:42.329Z,100657.31
2022-12-06T00:51:09.009Z,100644.28
2022-12-06T00:53:35.752Z,100646.06
2022-12-06T00:56:02.331Z,100637.34
2022-12-06T00:58:28.913Z,100642.56
2022-12-06T01:00:55.576Z,100646.16
2022-12-06T01:03:22.364Z,100649.75
2022-12-06T01:05:51.156Z,100650.66
2022-12-06T01:08:19.040Z,100656.81
2022-12-06T01:10:55.046Z,100663.81
2022-12-06T01:13:21.586Z,100655.19
2022-12-06T01:15:48.108Z,100636.09
2022-12-06T01:18:14.678Z,100654.41
2022-12-06T01:20:41.247Z,100629.34
2022-12-06T01:23:08.006Z,100651.84
2022-12-06T01:25:36.461Z,100630.19
2022-12-06T01:28:03.750Z,100625.94
2022-12-06T01:30:30.680Z,100628.56
2022-12-06T01:32:57.327Z,100672.72
2022-12-06T01:35:23.851Z,100653.66
2022-12-06T01:37:50.392Z,100664.94
2022-12-06T01:40:16.975Z,100669.38
2022-12-06T01:42:43.546Z,100641.66
2022-12-06T01:45:10.538Z,100639.94
2022-12-06T01:47:43.162Z,100660.69
2022-12-06T01:50:32.660Z,100661.53
2022-12-06T01:53:08.053Z,100639.03
2022-12-06T01:55:38.845Z,100663.28
2022-12-06T01:58:12.757Z,100652.88
2022-12-06T02:00:39.282Z,100648.53
2022-12-06T02:03:12.485Z,100649.41
2022-12-06T02:05:40.878Z,100650.31
2022-12-06T02:08:09.928Z,100642.47
2022-12-06T02:10:37.044Z,100645.91
2022-12-06T02:13:04.446Z,100643.25
2022-12-06T02:16:13.017Z,100640.47
2022-12-06T02:18:56.387Z,100636.09
2022-12-06T02:21:49.795Z,100632.63
2022-12-06T02:24:37.975Z,100602.34
2022-12-06T02:27:42.153Z,100633.59
2022-12-06T02:30:18.203Z,100607.84
2022-12-06T02:32:57.373Z,100602.72
2022-12-06T02:35:33.016Z,100620.00
2022-12-06T02:38:25.196Z,100627.81
2022-12-06T02:40:58.890Z,100619.19
2022-12-06T02:43:32.518Z,100624.41
2022-12-06T02:46:02.960Z,100628.81
2022-12-06T02:48:32.842Z,100627.94
2022-12-06T02:51:03.213Z,100629.72
2022-12-06T02:53:32.972Z,100627.97
2022-12-06T02:55:59.929Z,100615.84
2022-12-06T02:58:27.806Z,100599.44
2022-12-06T03:01:01.644Z,100629.78
2022-12-06T03:03:36.283Z,100631.50
2022-12-06T03:06:02.855Z,100594.19
2022-12-06T03:08:50.799Z,100625.34
2022-12-06T03:11:18.331Z,100587.19
2022-12-06T03:14:07.979Z,100623.53
2022-12-06T03:17:01.851Z,100617.44
2022-12-06T03:19:30.666Z,100616.69
2022-12-06T03:22:35.593Z,100586.38
2022-12-06T03:25:06.027Z,100624.47
2022-12-06T03:27:34.496Z,100634.06
2022-12-06T03:30:05.332Z,100620.19
2022-12-06T03:32:34.627Z,100612.41
2022-12-06T03:35:07.596Z,100617.66
2022-12-06T03:37:38.836Z,100620.22
2022-12-06T03:40:21.124Z,100616.78
2022-12-06T03:42:49.456Z,100616.78
2022-12-06T03:45:16.283Z,100611.56
2022-12-06T03:47:55.161Z,100611.56
2022-12-06T03:50:44.571Z,100582.16
2022-12-06T03:53:11.180Z,100613.34
2022-12-06T03:55:37.779Z,100604.66
2022-12-06T03:58:04.557Z,100603.78
2022-12-06T04:00:31.121Z,100598.53
2022-12-06T04:02:57.654Z,100590.72
2022-12-06T04:05:24.171Z,100588.16
2022-12-06T04:07:50.956Z,100586.47
2022-12-06T04:10:17.594Z,100592.56
2022-12-06T04:13:02.341Z,100590.75
2022-12-06T04:15:31.924Z,100586.38
2022-12-06T04:18:15.847Z,100585.44
2022-12-06T04:21:16.038Z,100581.16
2022-12-06T04:23:45.789Z,100574.25
2022-12-06T04:26:14.773Z,100590.75
2022-12-06T04:29:00.382Z,100570.00
2022-12-06T04:31:46.496Z,100586.34
2022-12-06T04:34:32.051Z,100549.09
2022-12-06T04:37:17.987Z,100574.16
2022-12-06T04:39:44.803Z,100582.00
2022-12-06T04:42:30.684Z,100582.00
2022-12-06T04:44:57.358Z,100583.75
2022-12-06T04:47:24.605Z,100576.84
2022-12-06T04:49:51.687Z,100585.50
2022-12-06T04:52:18.466Z,100568.09
2022-12-06T04:54:45.423Z,100569.88
2022-12-06T04:57:13.769Z,100576.00
2022-12-06T04:59:42.574Z,100574.25
2022-12-06T05:02:12.977Z,100566.44
2022-12-06T05:04:40.029Z,100574.25
2022-12-06T05:07:06.694Z,100543.09
2022-12-06T05:09:33.395Z,100571.56
2022-12-06T05:12:00.016Z,100572.44
2022-12-06T05:14:26.593Z,100569.81
2022-12-06T05:16:53.211Z,100563.78
2022-12-06T05:19:19.835Z,100563.69
2022-12-06T05:21:47.163Z,100549.06
2022-12-06T05:24:14.338Z,100555.16
2022-12-06T05:26:41.366Z,100576.78
2022-12-06T05:29:08.173Z,100581.16
2022-12-06T05:31:34.804Z,100583.75
2022-12-06T05:34:01.519Z,100555.19
2022-12-06T05:36:28.549Z,100580.28
2022-12-06T05:38:56.469Z,100579.47
2022-12-06T05:41:24.185Z,100579.53
2022-12-06T05:43:50.863Z,100573.44
2022-12-06T05:46:18.382Z,100576.03
2022-12-06T05:48:45.214Z,100564.84
2022-12-06T05:51:12.160Z,100570.84
2022-12-06T05:53:39.381Z,100554.44
2022-12-06T05:56:09.114Z,100548.31
2022-12-06T05:58:36.553Z,100576.84
2022-12-06T06:01:04.748Z,100582.03
2022-12-06T06:03:31.352Z,100564.72
2022-12-06T06:05:59.948Z,100575.88
2022-12-06T06:08:27.629Z,100577.63
2022-12-06T06:10:54.361Z,100575.88
2022-12-06T06:13:21.009Z,100577.63
2022-12-06T06:15:49.068Z,100575.03
2022-12-06T06:18:16.641Z,100572.41
2022-12-06T06:20:50.539Z,100577.63
2022-12-06T06:23:17.382Z,100544.75
2022-12-06T06:25:43.946Z,100576.75
2022-12-06T06:28:10.479Z,100575.00
2022-12-06T06:30:37.013Z,100573.25
2022-12-06T06:33:03.654Z,100574.13
2022-12-06T06:35:32.454Z,100562.06
2022-12-06T06:37:59.415Z,100582.84
2022-12-06T06:40:26.016Z,100584.59
2022-12-06T06:42:52.618Z,100582.00
2022-12-06T06:45:23.802Z,100569.06
2022-12-06T06:47:53.366Z,100579.34
2022-12-06T06:50:19.914Z,100581.09
2022-12-06T06:52:46.504Z,100577.63
2022-12-06T06:55:13.076Z,100561.22
2022-12-06T06:57:41.297Z,100587.25
2022-12-06T07:00:09.577Z,100570.84
2022-12-06T07:02:39.552Z,100567.34
2022-12-06T07:05:06.744Z,100596.78
2022-12-06T07:07:33.371Z,100595.84
2022-12-06T07:10:00.376Z,100593.13
2022-12-06T07:12:27.128Z,100595.75
2022-12-06T07:14:53.754Z,100581.03
2022-12-06T07:17:20.267Z,100603.63
2022-12-06T07:19:47.688Z,100594.91
2022-12-06T07:22:14.190Z,100580.19
2022-12-06T07:24:43.647Z,100595.72
2022-12-06T07:27:12.219Z,100598.34
2022-12-06T07:29:38.864Z,100592.28
2022-12-06T07:32:05.580Z,100593.97
2022-12-06T07:34:33.321Z,100595.75
2022-12-06T07:36:59.900Z,100602.75
2022-12-06T07:39:26.722Z,100607.91
2022-12-06T07:42:11.696Z,100611.41
2022-12-06T07:45:01.322Z,100608.78
2022-12-06T07:47:39.616Z,100607.06
2022-12-06T07:50:12.888Z,100605.34
2022-12-06T07:52:43.376Z,100609.66
2022-12-06T07:55:11.855Z,100613.16
2022-12-06T07:57:43.370Z,100606.22
2022-12-06T08:00:13.393Z,100609.69
2022-12-06T08:02:40.200Z,100608.75
2022-12-06T08:05:06.944Z,100606.97
2022-12-06T08:07:33.813Z,100598.28
2022-12-06T08:10:00.857Z,100606.00
2022-12-06T08:12:32.048Z,100599.00
2022-12-06T08:14:59.947Z,100577.41
2022-12-06T08:17:27.545Z,100598.09
2022-12-06T08:19:54.293Z,100605.94
2022-12-06T08:22:21.014Z,100600.72
2022-12-06T08:24:47.918Z,100598.91
2022-12-06T08:27:14.560Z,100604.13
2022-12-06T08:29:41.070Z,100597.09
2022-12-06T08:32:07.618Z,100586.72
2022-12-06T08:34:34.497Z,100611.81
2022-12-06T08:37:03.531Z,100610.09
2022-12-06T08:39:30.740Z,100609.22
2022-12-06T08:42:02.274Z,100613.53
2022-12-06T08:44:30.324Z,100581.38
2022-12-06T08:46:58.003Z,100605.56
2022-12-06T08:49:26.515Z,100612.47
2022-12-06T08:51:53.621Z,100607.19
2022-12-06T08:54:24.229Z,100588.06
2022-12-06T08:56:51.118Z,100602.47
2022-12-06T08:59:18.180Z,100605.91
2022-12-06T09:01:46.515Z,100617.22
2022-12-06T09:04:14.803Z,100614.56
2022-12-06T09:06:43.183Z,100619.78
2022-12-06T09:09:10.905Z,100620.66
2022-12-06T09:11:39.030Z,100632.00
2022-12-06T09:14:07.415Z,100630.25
2022-12-06T09:16:34.112Z,100619.88
2022-12-06T09:19:00.954Z,100621.56
2022-12-06T09:21:32.128Z,100623.31
2022-12-06T09:23:59.274Z,100618.91
2022-12-06T09:26:27.440Z,100625.69
2022-12-06T09:28:55.633Z,100622.03
2022-12-06T09:31:22.844Z,100621.06
2022-12-06T09:33:49.707Z,100611.41
2022-12-06T09:36:24.265Z,100613.97
2022-12-06T09:39:20.354Z,100619.84
2022-12-06T09:42:02.293Z,100624.06
2022-12-06T09:45:06.715Z,100624.88
2022-12-06T09:47:53.515Z,100617.84
2022-12-06T09:50:32.568Z,100625.44
2022-12-06T09:53:31.127Z,100627.09
2022-12-06T09:56:09.791Z,100625.28
2022-12-06T09:58:54.450Z,100628.81
2022-12-06T10:01:50.344Z,100600.16
2022-12-06T10:04:31.925Z,100624.31
2022-12-06T10:07:08.816Z,100624.28
2022-12-06T10:10:00.652Z,100621.72
2022-12-06T10:12:47.351Z,100618.66
2022-12-06T10:16:07.053Z,100620.63
2022-12-06T10:18:49.962Z,100627.78
2022-12-06T10:21:16.542Z,100624.53
2022-12-06T10:23:51.925Z,100629.88
2022-12-06T10:27:01.591Z,100622.16
2022-12-06T10:29:52.970Z,100622.22
2022-12-06T10:32:32.025Z,100619.69
2022-12-06T10:35:07.877Z,100593.81
2022-12-06T10:37:40.798Z,100620.56
2022-12-06T10:40:25.012Z,100614.44
2022-12-06T10:43:04.027Z,100618.72
2022-12-06T10:46:23.149Z,100616.81
2022-12-06T10:49:00.028Z,100614.97
2022-12-06T10:51:39.869Z,100620.19
2022-12-06T10:54:26.060Z,100620.28
2022-12-06T10:56:56.582Z,100611.56
2022-12-06T10:59:54.470Z,100618.53
2022-12-06T11:02:45.934Z,100618.50
2022-12-06T11:05:24.760Z,100617.56
2022-12-06T11:07:59.345Z,100597.66
2022-12-06T11:10:30.428Z,100613.16
2022-12-06T11:13:18.697Z,100617.50
2022-12-06T11:15:53.261Z,100609.66
2022-12-06T11:18:20.484Z,100615.56
2022-12-06T11:21:00.576Z,100616.25
2022-12-06T11:23:49.104Z,100611.00
2022-12-06T11:26:56.744Z,100612.69
2022-12-06T11:29:23.613Z,100608.25
2022-12-06T11:31:56.245Z,100605.66
2022-12-06T11:34:29.297Z,100607.59
2022-12-06T11:37:00.401Z,100580.00
2022-12-06T11:39:28.896Z,100601.56
2022-12-06T11:41:58.985Z,100565.94
2022-12-06T11:44:28.609Z,100599.50
2022-12-06T11:47:00.400Z,100600.38
2022-12-06T11:49:32.620Z,100587.22
2022-12-06T11:52:04.792Z,100593.16
2022-12-06T11:54:38.693Z,100600.06
2022-12-06T11:57:22.145Z,100588.63
2022-12-06T12:00:10.529Z,100586.44
2022-12-06T12:02:37.429Z,100572.13
2022-12-06T12:05:20.268Z,100578.91
2022-12-06T12:07:55.934Z,100576.41
2022-12-06T12:10:27.375Z,100578.94
2022-12-06T12:13:13.746Z,100577.13
2022-12-06T12:15:50.584Z,100555.53
2022-12-06T12:18:25.450Z,100578.19
2022-12-06T12:20:55.292Z,100574.13
2022-12-06T12:23:33.493Z,100578.78
2022-12-06T12:26:10.836Z,100566.78
2022-12-06T12:28:38.657Z,100562.38
2022-12-06T12:31:21.208Z,100565.91
2022-12-06T12:33:48.771Z,100578.06
2022-12-06T12:36:17.598Z,100575.31
2022-12-06T12:38:47.179Z,100577.88
2022-12-06T12:41:43.323Z,100575.13
2022-12-06T12:44:37.462Z,100579.09
2022-12-06T12:47:20.428Z,100568.41
2022-12-06T12:50:02.402Z,100576.97
2022-12-06T12:52:36.020Z,100567.50
2022-12-06T12:55:15.467Z,100561.47
2022-12-06T12:57:45.032Z,100575.34
2022-12-06T13:00:22.219Z,100567.84
2022-12-06T13:02:57.316Z,100566.44
2022-12-06T13:05:33.686Z,100568.41
2022-12-06T13:08:21.594Z,100565.94
2022-12-06T13:10:57.057Z,100570.34
2022-12-06T13:13:37.382Z,100538.44
2022-12-06T13:16:11.919Z,100570.34
2022-12-06T13:18:46.048Z,100569.38
2022-12-06T13:21:35.786Z,100568.34
2022-12-06T13:24:11.334Z,100536.38
2022-12-06T13:27:16.576Z,100573.56
2022-12-06T13:29:57.391Z,100567.66
2022-12-06T13:32:38.812Z,100561.44
2022-12-06T13:35:21.943Z,100563.16
2022-12-06T13:37:54.471Z,100564.84
2022-12-06T13:40:33.343Z,100552.63
2022-12-06T13:43:01.751Z,100525.22
2022-12-06T13:45:37.283Z,100556.50
2022-12-06T13:48:04.048Z,100571.19
2022-12-06T13:50:33.254Z,100571.22
2022-12-06T13:53:02.184Z,100531.41
2022-12-06T13:55:28.674Z,100566.00
2022-12-06T13:57:55.157Z,100566.81
2022-12-06T14:00:30.758Z,100566.78
2022-12-06T14:03:21.637Z,100538.25
2022-12-06T14:06:01.008Z,100577.38
2022-12-06T14:08:30.116Z,100569.63
2022-12-06T14:11:21.914Z,100573.22
2022-12-06T14:13:58.457Z,100581.94
2022-12-06T14:16:37.183Z,100562.78
2022-12-06T14:19:15.992Z,100573.06
2022-12-06T14:22:10.252Z,100565.25
2022-12-06T14:24:40.027Z,100567.75
2022-12-06T14:27:18.717Z,100566.00
2022-12-06T14:30:01.024Z,100553.97
2022-12-06T14:32:36.495Z,100569.41
2022-12-06T14:35:30.899Z,100561.63
2022-12-06T14:38:01.553Z,100558.22
2022-12-06T14:40:50.733Z,100563.50
2022-12-06T14:43:19.146Z,100539.47
2022-12-06T14:45:46.797Z,100543.03
2022-12-06T14:48:13.672Z,100556.00
2022-12-06T14:50:44.734Z,100561.13
2022-12-06T14:53:17.008Z,100565.38
2022-12-06T14:56:26.385Z,100562.75
2022-12-06T14:58:53.005Z,100538.56
2022-12-06T15:01:24.191Z,100568.84
2022-12-06T15:03:57.816Z,100574.16
2022-12-06T15:06:25.706Z,100575.03
2022-12-06T15:08:58.521Z,100572.47
2022-12-06T15:11:59.567Z,100537.84
2022-12-06T15:14:47.574Z,100563.00
2022-12-06T15:17:14.052Z,100559.44
2022-12-06T15:19:44.842Z,100546.41
2022-12-06T15:22:24.336Z,100554.16
2022-12-06T15:24:54.657Z,100555.19
2022-12-06T15:27:23.194Z,100531.06
2022-12-06T15:29:50.440Z,100556.94
2022-12-06T15:32:18.701Z,100558.75
2022-12-06T15:34:45.676Z,100567.53
2022-12-06T15:40:02.151Z,100558.97
2022-12-06T15:42:28.907Z,100559.88
2022-12-06T15:44:55.483Z,100572.09
2022-12-06T15:47:22.031Z,100565.16
2022-12-06T15:49:51.769Z,100570.44
2022-12-06T15:52:23.477Z,100535.84
2022-12-06T15:54:50.299Z,100567.00
2022-12-06T15:57:16.843Z,100564.53
2022-12-06T15:59:43.339Z,100564.56
2022-12-06T16:02:18.128Z,100567.84
2022-12-06T16:04:48.001Z,100570.44
2022-12-06T16:07:18.887Z,100567.00
2022-12-06T16:09:46.041Z,100560.88
2022-12-06T16:12:12.659Z,100551.38
2022-12-06T16:14:39.284Z,100558.22
2022-12-06T16:17:05.880Z,100552.25
2022-12-06T16:19:51.388Z,100566.13
2022-12-06T16:22:17.981Z,100555.63
2022-12-06T16:24:46.278Z,100557.38
2022-12-06T16:27:16.196Z,100553.84
2022-12-06T16:29:42.779Z,100557.38
2022-12-06T16:32:09.291Z,100556.47
2022-12-06T16:34:35.834Z,100554.69
2022-12-06T16:37:09.049Z,100550.34
2022-12-06T16:39:35.718Z,100554.72
2022-12-06T16:42:04.399Z,100548.66
2022-12-06T16:44:31.286Z,100552.16
2022-12-06T16:46:58.293Z,100558.22
2022-12-06T16:52:14.464Z,100555.63
2022-12-06T16:54:42.042Z,100555.59
2022-12-06T16:57:10.979Z,100528.66
2022-12-06T16:59:37.620Z,100551.84
2022-12-06T17:02:09.991Z,100531.75
2022-12-06T17:04:39.529Z,100537.84
2022-12-06T17:07:06.039Z,100536.25
2022-12-06T17:09:32.626Z,100539.75
2022-12-06T17:12:07.081Z,100546.78
2022-12-06T17:14:36.000Z,100549.41
2022-12-06T17:17:04.209Z,100548.56
2022-12-06T17:19:31.698Z,100559.09
2022-12-06T17:21:58.784Z,100561.69
2022-12-06T17:24:26.941Z,100555.56
2022-12-06T17:26:54.225Z,100566.03
2022-12-06T17:29:21.002Z,100561.69
2022-12-06T17:31:47.573Z,100563.41
2022-12-06T17:34:14.941Z,100566.00
2022-12-06T17:36:42.527Z,100560.78
2022-12-06T17:39:10.965Z,100566.88
2022-12-06T17:41:55.957Z,100554.72
2022-12-06T17:44:22.485Z,100575.59
2022-12-06T17:46:49.086Z,100536.66
2022-12-06T17:49:18.865Z,100570.44
2022-12-06T17:51:45.763Z,100563.50
2022-12-06T17:54:12.907Z,100537.59
2022-12-06T17:56:46.887Z,100564.38
2022-12-06T17:59:19.246Z,100574.91
2022-12-06T18:04:33.010Z,100575.00
2022-12-06T18:06:59.769Z,100567.13
2022-12-06T18:09:26.513Z,100562.84
2022-12-06T18:11:55.693Z,100561.97
2022-12-06T18:14:22.328Z,100570.63
2022-12-06T18:16:48.955Z,100563.50
2022-12-06T18:19:18.450Z,100564.38
2022-12-06T18:21:45.970Z,100534.09
2022-12-06T18:24:25.840Z,100558.34
2022-12-06T18:26:55.689Z,100566.22
2022-12-06T18:29:23.655Z,100564.38
2022-12-06T18:31:51.437Z,100566.22
2022-12-06T18:34:19.567Z,100553.03
2022-12-06T18:36:46.371Z,100564.38
2022-12-06T18:39:16.001Z,100564.47
2022-12-06T18:41:46.387Z,100568.72
2022-12-06T18:44:13.350Z,100567.00
2022-12-06T18:46:42.214Z,100533.22
2022-12-06T18:49:11.023Z,100557.47
2022-12-06T18:51:38.870Z,100567.91
2022-12-06T18:54:06.621Z,100567.97
2022-12-06T18:56:34.466Z,100560.13
2022-12-06T18:59:03.188Z,100564.53
2022-12-06T19:01:32.916Z,100574.16
2022-12-06T19:04:01.241Z,100561.97
2022-12-06T19:06:31.864Z,100542.16
2022-12-06T19:09:01.736Z,100568.06
2022-12-06T19:11:28.531Z,100568.97
2022-12-06T19:13:57.233Z,100536.94
2022-12-06T19:16:29.461Z,100570.78
2022-12-06T19:19:00.056Z,100567.31
2022-12-06T19:21:27.456Z,100500.75
2022-12-06T19:23:56.348Z,100572.50
2022-12-06T19:26:24.263Z,100569.91
2022-12-06T19:28:50.848Z,100569.94
2022-12-06T19:31:18.056Z,100572.50
2022-12-06T19:33:48.734Z,100571.66
2022-12-06T19:36:16.754Z,100578.66
2022-12-06T19:38:43.968Z,100568.28
2022-12-06T19:41:13.965Z,100573.56
2022-12-06T19:43:59.415Z,100571.00
2022-12-06T19:46:28.417Z,100580.56
2022-12-06T19:49:00.439Z,100580.63
2022-12-06T19:51:29.121Z,100588.44
2022-12-06T19:53:58.876Z,100563.41
2022-12-06T19:56:26.071Z,100589.28
2022-12-06T19:58:55.666Z,100591.91
2022-12-06T20:01:27.133Z,100598.94
2022-12-06T20:03:56.965Z,100592.97
2022-12-06T20:06:26.375Z,100598.13
2022-12-06T20:08:54.508Z,100599.97
2022-12-06T20:11:41.822Z,100595.66
2022-12-06T20:14:11.356Z,100598.28
2022-12-06T20:16:38.116Z,100593.97
2022-12-06T20:19:06.910Z,100594.09
2022-12-06T20:21:34.675Z,100593.28
2022-12-06T20:24:01.731Z,100583.75
2022-12-06T20:26:29.592Z,100591.59
2022-12-06T20:28:56.135Z,100586.41
2022-12-06T20:31:25.972Z,100562.16
2022-12-06T20:33:55.836Z,100569.09
2022-12-06T20:36:26.422Z,100556.09
2022-12-06T20:38:54.442Z,100545.78
2022-12-06T20:41:23.617Z,100571.78
2022-12-06T20:43:51.530Z,100546.66
2022-12-06T20:46:24.982Z,100563.06
2022-12-06T20:48:53.244Z,100566.53
2022-12-06T20:51:21.956Z,100569.16
2022-12-06T20:53:49.922Z,100571.78
2022-12-06T20:56:20.224Z,100571.88
2022-12-06T20:58:49.609Z,100573.66
2022-12-06T21:01:21.299Z,100578.03
2022-12-06T21:03:48.943Z,100558.06
2022-12-06T21:06:16.028Z,100572.03
2022-12-06T21:08:42.924Z,100573.84
2022-12-06T21:11:25.725Z,100565.13
2022-12-06T21:13:57.680Z,100561.63
2022-12-06T21:16:30.135Z,100560.66
2022-12-06T21:19:02.017Z,100545.88
2022-12-06T21:21:32.820Z,100531.91
2022-12-06T21:24:00.272Z,100563.03
2022-12-06T21:26:27.060Z,100542.28
2022-12-06T21:28:54.635Z,100550.78
2022-12-06T21:31:26.699Z,100539.47
2022-12-06T21:33:53.743Z,100567.16
2022-12-06T21:36:20.588Z,100574.91
2022-12-06T21:38:47.222Z,100564.44
2022-12-06T21:41:14.227Z,100549.75
2022-12-06T21:43:40.981Z,100562.69
2022-12-06T21:46:12.404Z,100560.06
2022-12-06T21:48:39.504Z,100526.25
2022-12-06T21:51:08.891Z,100551.34
2022-12-06T21:53:36.670Z,100559.19
2022-12-06T21:56:07.721Z,100552.22
2022-12-06T21:58:35.710Z,100563.56
2022-12-06T22:01:07.758Z,100571.41
2022-12-06T22:03:35.197Z,100571.41
2022-12-06T22:06:12.427Z,100574.00
2022-12-06T22:08:43.118Z,100566.09
2022-12-06T22:11:10.759Z,100568.63
2022-12-06T22:13:37.331Z,100564.25
2022-12-06T22:16:09.312Z,100558.06
2022-12-06T22:18:44.080Z,100546.84
2022-12-06T22:21:17.627Z,100571.06
2022-12-06T22:23:44.976Z,100562.50
2022-12-06T22:26:15.446Z,100567.72
2022-12-06T22:28:42.113Z,100570.31
2022-12-06T22:31:20.458Z,100574.69
2022-12-06T22:33:48.076Z,100556.53
2022-12-06T22:36:15.805Z,100577.19
2022-12-06T22:38:53.603Z,100566.69
2022-12-06T22:41:21.214Z,100563.19
2022-12-06T22:43:58.868Z,100570.06
2022-12-06T22:46:26.993Z,100570.00
2022-12-06T22:48:54.838Z,100568.16
2022-12-06T22:51:21.276Z,100570.78
2022-12-06T22:53:52.672Z,100567.31
2022-12-06T22:56:19.525Z,100560.31
2022-12-06T22:58:46.052Z,100562.75
2022-12-06T23:01:17.605Z,100528.94
2022-12-06T23:03:46.148Z,100566.91
2022-12-06T23:06:13.951Z,100551.22
2022-12-06T23:08:40.863Z,100563.47
2022-12-06T23:11:10.227Z,100547.13
2022-12-06T23:13:36.744Z,100567.97
2022-12-06T23:16:06.477Z,100546.28
2022-12-06T23:18:34.163Z,100549.69
2022-12-06T23:21:05.539Z,100574.69
2022-12-06T23:23:32.254Z,100573.78
2022-12-06T23:26:08.051Z,100572.09
2022-12-06T23:28:35.105Z,100566.88
2022-12-06T23:31:06.367Z,100564.25
2022-12-06T23:33:33.321Z,100556.38
2022-12-06T23:36:04.410Z,100528.00
2022-12-06T23:38:31.180Z,100543.69
2022-12-06T23:41:02.804Z,100519.56
2022-12-06T23:43:29.345Z,100550.84
2022-12-06T23:45:59.150Z,100551.72
2022-12-06T23:48:27.757Z,100536.91
2022-12-06T23:51:04.570Z,100545.59
2022-12-06T23:53:32.081Z,100510.03
2022-12-06T23:56:05.528Z,100517.78
2022-12-06T23:58:32.047Z,100544.56
